Time;durP1;ratioP1;P1;durP2;ratioP2;P2;SDS_P1;SDS_P2;PMS_P1;PMS_P2;Temp;Humidity;BMP_temperature;BMP_pressure;BME280_temperature;BME280_humidity;BME280_pressure;Samples;Min_cycle;Max_cycle;Signal;HPM_P1;HPM_P2
2021/06/30 00:01:56;;;;;;;;;;;;;;;;;;5114461;27;19977;-61
2021/06/30 00:04:22;;;;;;;;;;;;;;;;;;5114808;27;20386;-61
2021/06/30 00:06:48;;;;;;;;;;;;;;;;;;5113734;27;19912;-61
2021/06/30 00:09:14;;;;;;;;;;;;;;;;;;5109294;28;19934;-61
2021/06/30 00:11:39;;;;;;;;;;;;;;;;;;5117377;27;19908;-61
2021/06/30 00:14:05;;;;;;;;;;;;;;;;;;5116502;27;19911;-61
2021/06/30 00:16:32;;;;;;;;;;;;;;;;;;5113848;27;19912;-62
2021/06/30 00:18:58;;;;;;;;;;;;;;;;;;5113946;27;20442;-61
2021/06/30 00:21:24;;;;;;;;;;;;;;;;;;5110370;27;19920;-61
2021/06/30 00:23:50;;;;;;;;;;;;;;;;;;5115758;27;19911;-62
2021/06/30 00:26:16;;;;;;;;;;;;;;;;;;5116290;27;20282;-62
2021/06/30 00:28:41;;;;;;;;;;;;;;;;;;5110646;28;19923;-62
2021/06/30 00:31:07;;;;;;;;;;;;;;;;;;5112750;27;19942;-61
2021/06/30 00:33:33;;;;;;;;;;;;;;;;;;5112220;27;19912;-62
2021/06/30 00:35:59;;;;;;;;;;;;;;;;;;5113526;27;20282;-61
2021/06/30 00:38:25;;;;;;;;;;;;;;;;;;5115260;27;19996;-61
2021/06/30 00:40:51;;;;;;;;;;;;;;;;;;5112972;27;19920;-62
2021/06/30 00:43:17;;;;;;;;;;;;;;;;;;5114222;27;20515;-61
2021/06/30 00:45:43;;;;;;;;;;;;;;;;;;5113343;27;20022;-61
2021/06/30 00:48:08;;;;;;;;;;;;;;;;;;5110373;28;19919;-62
2021/06/30 00:50:34;;;;;;;;;;;;;;;;;;5116029;27;19911;-61
2021/06/30 00:53:00;;;;;;;;;;;;;;;;;;5113838;27;19995;-61
2021/06/30 00:55:26;;;;;;;;;;;;;;;;;;5113172;27;19916;-62
2021/06/30 00:57:52;;;;;;;;;;;;;;;;;;5109230;28;19912;-62
2021/06/30 01:00:18;;;;;;;;;;;;;;;;;;5108946;28;19916;-62
2021/06/30 01:02:44;;;;;;;;;;;;;;;;;;5116385;27;20393;-62
2021/06/30 01:05:10;;;;;;;;;;;;;;;;;;5115176;27;19914;-62
2021/06/30 01:07:36;;;;;;;;;;;;;;;;;;5113850;27;20583;-62
2021/06/30 01:10:02;;;;;;;;;;;;;;;;;;5112516;27;19919;-62
2021/06/30 01:12:28;;;;;;;;;;;;;;;;;;5112649;27;19945;-61
2021/06/30 01:14:54;;;;;;;;;;;;;;;;;;5113955;27;20362;-61
2021/06/30 01:17:19;;;;;;;;;;;;;;;;;;5114158;27;19907;-61
2021/06/30 01:19:45;;;;;;;;;;;;;;;;;;5094665;28;19916;-61
2021/06/30 01:22:11;;;;;;;;;;;;;;;;;;5113155;27;19949;-61
2021/06/30 01:24:37;;;;;;;;;;;;;;;;;;5111600;27;20002;-61
2021/06/30 01:27:03;;;;;;;;;;;;;;;;;;5111804;27;19959;-61
2021/06/30 01:29:29;;;;;;;;;;;;;;;;;;5110707;28;19911;-61
2021/06/30 01:31:55;;;;;;;;;;;;;;;;;;5113107;28;19954;-61
2021/06/30 01:34:21;;;;;;;;;;;;;;;;;;5112338;28;19935;-62
2021/06/30 01:36:47;;;;;;;;;;;;;;;;;;5094906;28;19969;-62
2021/06/30 01:39:12;;;;;;;;;;;;;;;;;;5104567;28;19911;-62
2021/06/30 01:41:38;;;;;;;;;;;;;;;;;;5117544;28;20022;-61
2021/06/30 01:44:04;;;;;;;;;;;;;;;;;;5116907;27;19970;-62
2021/06/30 01:46:30;;;;;;;;;;;;;;;;;;5117720;27;20022;-61
2021/06/30 01:48:56;;;;;;;;;;;;;;;;;;5116723;27;19916;-63
2021/06/30 01:51:22;;;;;;;;;;;;;;;;;;5113542;27;19986;-62
2021/06/30 01:53:48;;;;;;;;;;;;;;;;;;5118959;27;19912;-61
2021/06/30 01:56:14;;;;;;;;;;;;;;;;;;5117345;27;20391;-61
2021/06/30 01:58:39;;;;;;;;;;;;;;;;;;5112515;27;19912;-61
2021/06/30 02:01:09;;;;;;;;;;;;;;;;;;5117078;27;19999;-61
2021/06/30 02:03:35;;;;;;;;;;;;;;;;;;5115410;27;20107;-61
2021/06/30 02:06:01;;;;;;;;;;;;;;;;;;5115956;27;19949;-62
2021/06/30 02:08:26;;;;;;;;;;;;;;;;;;5118103;27;19915;-62
2021/06/30 02:10:52;;;;;;;;;;;;;;;;;;5116041;27;19920;-61
2021/06/30 02:13:18;;;;;;;;;;;;;;;;;;5119053;27;19962;-62
2021/06/30 02:15:44;;;;;;;;;;;;;;;;;;5116622;27;19930;-62
2021/06/30 02:18:10;;;;;;;;;;;;;;;;;;5112604;27;19958;-62
2021/06/30 02:20:36;;;;;;;;;;;;;;;;;;5118991;27;20347;-62
2021/06/30 02:23:02;;;;;;;;;;;;;;;;;;5116352;27;19919;-62
2021/06/30 02:25:28;;;;;;;;;;;;;;;;;;5116745;27;19912;-62
2021/06/30 02:27:54;;;;;;;;;;;;;;;;;;5093873;28;20007;-61
2021/06/30 02:30:19;;;;;;;;;;;;;;;;;;5112631;27;19920;-61
2021/06/30 02:32:45;;;;;;;;;;;;;;;;;;5118322;27;19908;-61
2021/06/30 02:35:11;;;;;;;;;;;;;;;;;;5098409;28;19922;-61
2021/06/30 02:37:37;;;;;;;;;;;;;;;;;;5115518;27;19961;-61
2021/06/30 02:40:03;;;;;;;;;;;;;;;;;;5115586;27;19919;-61
2021/06/30 02:42:29;;;;;;;;;;;;;;;;;;5109226;27;19920;-62
2021/06/30 02:44:55;;;;;;;;;;;;;;;;;;5116193;27;19915;-61
2021/06/30 02:47:21;;;;;;;;;;;;;;;;;;5116755;27;19994;-61
2021/06/30 02:49:47;;;;;;;;;;;;;;;;;;5116166;27;19923;-61
2021/06/30 02:52:12;;;;;;;;;;;;;;;;;;5115581;27;19935;-62
2021/06/30 02:54:38;;;;;;;;;;;;;;;;;;5113701;27;19911;-61
2021/06/30 02:57:04;;;;;;;;;;;;;;;;;;5113652;27;19927;-62
2021/06/30 02:59:30;;;;;;;;;;;;;;;;;;5113408;28;19947;-61
2021/06/30 03:01:56;;;;;;;;;;;;;;;;;;5115824;27;20140;-61
2021/06/30 03:04:22;;;;;;;;;;;;;;;;;;5116196;27;19911;-62
2021/06/30 03:06:48;;;;;;;;;;;;;;;;;;5115230;27;19918;-61
2021/06/30 03:09:14;;;;;;;;;;;;;;;;;;5111075;28;19965;-61
2021/06/30 03:11:41;;;;;;;;;;;;;;;;;;5119065;27;19908;-61
2021/06/30 03:14:06;;;;;;;;;;;;;;;;;;5117347;27;19951;-61
2021/06/30 03:16:32;;;;;;;;;;;;;;;;;;5115506;27;19919;-62
2021/06/30 03:18:58;;;;;;;;;;;;;;;;;;5115346;27;19918;-62
2021/06/30 03:21:24;;;;;;;;;;;;;;;;;;5111699;27;19924;-62
2021/06/30 03:23:50;;;;;;;;;;;;;;;;;;5116852;27;19912;-62
2021/06/30 03:26:16;;;;;;;;;;;;;;;;;;5118646;27;19921;-62
2021/06/30 03:28:42;;;;;;;;;;;;;;;;;;5110617;27;20283;-61
2021/06/30 03:31:08;;;;;;;;;;;;;;;;;;5114633;27;20006;-61
2021/06/30 03:33:34;;;;;;;;;;;;;;;;;;5113461;27;19965;-61
2021/06/30 03:35:59;;;;;;;;;;;;;;;;;;5114558;27;20420;-61
2021/06/30 03:38:25;;;;;;;;;;;;;;;;;;5116628;27;19930;-61
2021/06/30 03:40:51;;;;;;;;;;;;;;;;;;5114478;27;20022;-62
2021/06/30 03:43:17;;;;;;;;;;;;;;;;;;5114791;27;19915;-61
2021/06/30 03:45:43;;;;;;;;;;;;;;;;;;5114597;27;19915;-61
2021/06/30 03:48:09;;;;;;;;;;;;;;;;;;5092920;28;20382;-61
2021/06/30 03:50:35;;;;;;;;;;;;;;;;;;5117723;27;19908;-61
2021/06/30 03:53:01;;;;;;;;;;;;;;;;;;5114485;27;19920;-61
2021/06/30 03:55:27;;;;;;;;;;;;;;;;;;5114358;27;19971;-61
2021/06/30 03:57:52;;;;;;;;;;;;;;;;;;5110310;28;20335;-62
2021/06/30 04:00:18;;;;;;;;;;;;;;;;;;5110616;27;19912;-62
2021/06/30 04:02:44;;;;;;;;;;;;;;;;;;5116880;27;19915;-62
2021/06/30 04:05:10;;;;;;;;;;;;;;;;;;5115704;27;19908;-62
2021/06/30 04:07:36;;;;;;;;;;;;;;;;;;5114491;27;21108;-61
2021/06/30 04:10:02;;;;;;;;;;;;;;;;;;5113692;27;20002;-61
2021/06/30 04:12:28;;;;;;;;;;;;;;;;;;5113648;27;20291;-61
2021/06/30 04:14:54;;;;;;;;;;;;;;;;;;5115128;27;19915;-62
2021/06/30 04:17:19;;;;;;;;;;;;;;;;;;5115099;27;19908;-62
2021/06/30 04:19:45;;;;;;;;;;;;;;;;;;5114127;27;19970;-62
2021/06/30 04:22:11;;;;;;;;;;;;;;;;;;5114302;27;19920;-62
2021/06/30 04:24:37;;;;;;;;;;;;;;;;;;5120083;27;20290;-61
2021/06/30 04:27:03;;;;;;;;;;;;;;;;;;5121421;27;19914;-62
2021/06/30 04:29:29;;;;;;;;;;;;;;;;;;5106227;27;19962;-61
2021/06/30 04:31:55;;;;;;;;;;;;;;;;;;5121686;27;19911;-62
2021/06/30 04:34:21;;;;;;;;;;;;;;;;;;5118469;27;20359;-62
2021/06/30 04:36:46;;;;;;;;;;;;;;;;;;5114428;27;19915;-61
2021/06/30 04:39:15;;;;;;;;;;;;;;;;;;5105753;28;19969;-61
2021/06/30 04:41:40;;;;;;;;;;;;;;;;;;5106240;27;19961;-62
2021/06/30 04:44:06;;;;;;;;;;;;;;;;;;5113328;27;20314;-62
2021/06/30 04:46:32;;;;;;;;;;;;;;;;;;5113657;27;20014;-62
2021/06/30 04:48:58;;;;;;;;;;;;;;;;;;5112922;27;20328;-62
2021/06/30 04:51:24;;;;;;;;;;;;;;;;;;5110697;27;19912;-62
2021/06/30 04:53:51;;;;;;;;;;;;;;;;;;5114558;27;20292;-62
2021/06/30 04:56:26;;;;;;;;;;;;;;;;;;5116075;27;19972;-62
2021/06/30 04:58:52;;;;;;;;;;;;;;;;;;5108063;27;20278;-62
2021/06/30 05:01:18;;;;;;;;;;;;;;;;;;5113756;27;19928;-62
2021/06/30 05:03:44;;;;;;;;;;;;;;;;;;5112664;27;19963;-62
2021/06/30 05:06:10;;;;;;;;;;;;;;;;;;5109745;28;19912;-62
2021/06/30 05:08:36;;;;;;;;;;;;;;;;;;5115330;27;19907;-62
2021/06/30 05:11:01;;;;;;;;;;;;;;;;;;5113263;27;20290;-62
2021/06/30 05:13:27;;;;;;;;;;;;;;;;;;5115468;27;19912;-61
2021/06/30 05:15:53;;;;;;;;;;;;;;;;;;5112379;27;20380;-61
2021/06/30 05:18:19;;;;;;;;;;;;;;;;;;5107599;28;19920;-61
2021/06/30 05:20:45;;;;;;;;;;;;;;;;;;5128570;27;19908;-61
2021/06/30 05:23:11;;;;;;;;;;;;;;;;;;5114992;27;20468;-61
2021/06/30 05:25:37;;;;;;;;;;;;;;;;;;5113168;27;19923;-61
2021/06/30 05:28:03;;;;;;;;;;;;;;;;;;5108275;28;20309;-61
2021/06/30 05:30:29;;;;;;;;;;;;;;;;;;5110177;28;20375;-61
2021/06/30 05:32:54;;;;;;;;;;;;;;;;;;5113535;28;20007;-62
2021/06/30 05:35:20;;;;;;;;;;;;;;;;;;5113733;28;19934;-61
2021/06/30 05:37:46;;;;;;;;;;;;;;;;;;5094788;28;19938;-61
2021/06/30 05:40:12;;;;;;;;;;;;;;;;;;5113025;28;19911;-61
2021/06/30 05:42:38;;;;;;;;;;;;;;;;;;5111900;28;19920;-61
2021/06/30 05:45:05;;;;;;;;;;;;;;;;;;5110868;28;19915;-61
2021/06/30 05:47:31;;;;;;;;;;;;;;;;;;5115281;28;20367;-61
2021/06/30 05:49:57;;;;;;;;;;;;;;;;;;5112699;28;19916;-62
2021/06/30 05:52:23;;;;;;;;;;;;;;;;;;5112791;28;20362;-61
2021/06/30 05:54:49;;;;;;;;;;;;;;;;;;5113161;28;19934;-64
2021/06/30 05:57:15;;;;;;;;;;;;;;;;;;5090512;28;20283;-74
2021/06/30 05:59:40;;;;;;;;;;;;;;;;;;5110643;28;19908;-64
2021/06/30 06:02:06;;;;;;;;;;;;;;;;;;5114691;28;19923;-61
2021/06/30 06:04:32;;;;;;;;;;;;;;;;;;5120934;28;20390;-61
2021/06/30 06:06:58;;;;;;;;;;;;;;;;;;5118860;28;19919;-61
2021/06/30 06:09:24;;;;;;;;;;;;;;;;;;5108378;28;19920;-61
2021/06/30 06:11:50;;;;;;;;;;;;;;;;;;5113707;28;19915;-61
2021/06/30 06:14:16;;;;;;;;;;;;;;;;;;5115222;28;20434;-61
2021/06/30 06:16:42;;;;;;;;;;;;;;;;;;5111945;28;19916;-61
2021/06/30 06:19:08;;;;;;;;;;;;;;;;;;5112082;28;19985;-61
2021/06/30 06:21:35;;;;;;;;;;;;;;;;;;5110421;28;19920;-61
2021/06/30 06:24:01;;;;;;;;;;;;;;;;;;5111026;28;20311;-61
2021/06/30 06:26:27;;;;;;;;;;;;;;;;;;5116086;28;19977;-61
2021/06/30 06:28:53;;;;;;;;;;;;;;;;;;5110011;28;19916;-60
2021/06/30 06:31:19;;;;;;;;;;;;;;;;;;5115755;27;19912;-61
2021/06/30 06:33:45;;;;;;;;;;;;;;;;;;5116573;27;19915;-61
2021/06/30 06:36:11;;;;;;;;;;;;;;;;;;5112264;28;20284;-61
2021/06/30 06:38:40;;;;;;;;;;;;;;;;;;5118448;27;19970;-60
2021/06/30 06:41:06;;;;;;;;;;;;;;;;;;5116089;27;20435;-61
2021/06/30 06:43:32;;;;;;;;;;;;;;;;;;5115776;27;19919;-61
2021/06/30 06:45:58;;;;;;;;;;;;;;;;;;5115356;27;19911;-61
2021/06/30 06:48:23;;;;;;;;;;;;;;;;;;5111805;27;20343;-61
2021/06/30 06:50:49;;;;;;;;;;;;;;;;;;5117300;27;19914;-61
2021/06/30 06:53:15;;;;;;;;;;;;;;;;;;5116825;27;19919;-61
2021/06/30 06:55:41;;;;;;;;;;;;;;;;;;5115599;27;19908;-61
2021/06/30 06:58:08;;;;;;;;;;;;;;;;;;5110220;27;20286;-61
2021/06/30 07:00:34;;;;;;;;;;;;;;;;;;5112972;27;19915;-61
2021/06/30 07:03:00;;;;;;;;;;;;;;;;;;5115150;27;19919;-63
2021/06/30 07:05:26;;;;;;;;;;;;;;;;;;5117231;27;20014;-62
2021/06/30 07:07:52;;;;;;;;;;;;;;;;;;5115053;27;20282;-61
2021/06/30 07:10:17;;;;;;;;;;;;;;;;;;5114969;27;19935;-61
2021/06/30 07:12:43;;;;;;;;;;;;;;;;;;5119457;27;20392;-61
2021/06/30 07:15:10;;;;;;;;;;;;;;;;;;5120894;27;19999;-61
2021/06/30 07:17:36;;;;;;;;;;;;;;;;;;5125325;27;20283;-61
2021/06/30 07:20:02;;;;;;;;;;;;;;;;;;5127877;27;19921;-61
2021/06/30 07:22:28;;;;;;;;;;;;;;;;;;5120961;27;19927;-61
2021/06/30 07:24:54;;;;;;;;;;;;;;;;;;5122484;27;19959;-61
2021/06/30 07:27:20;;;;;;;;;;;;;;;;;;5115909;27;19920;-61
2021/06/30 07:29:45;;;;;;;;;;;;;;;;;;5126661;27;19912;-61
2021/06/30 07:32:11;;;;;;;;;;;;;;;;;;5115384;27;19919;-62
2021/06/30 07:34:37;;;;;;;;;;;;;;;;;;5117304;27;19966;-61
2021/06/30 07:37:03;;;;;;;;;;;;;;;;;;5119625;27;20263;-61
2021/06/30 07:39:29;;;;;;;;;;;;;;;;;;5111867;27;19913;-61
2021/06/30 07:41:55;;;;;;;;;;;;;;;;;;5114761;27;20390;-61
2021/06/30 07:44:21;;;;;;;;;;;;;;;;;;5116250;27;19912;-61
2021/06/30 07:46:47;;;;;;;;;;;;;;;;;;5114568;27;19976;-60
2021/06/30 07:49:13;;;;;;;;;;;;;;;;;;5114038;27;19912;-60
2021/06/30 07:51:39;;;;;;;;;;;;;;;;;;5114108;27;20278;-61
2021/06/30 07:54:05;;;;;;;;;;;;;;;;;;5112585;27;19919;-60
2021/06/30 07:56:34;;;;;;;;;;;;;;;;;;5116079;27;19907;-60
2021/06/30 07:59:00;;;;;;;;;;;;;;;;;;5110279;27;19939;-60
2021/06/30 08:01:26;;;;;;;;;;;;;;;;;;5114696;27;20032;-60
2021/06/30 08:03:52;;;;;;;;;;;;;;;;;;5113713;27;19956;-60
2021/06/30 08:06:17;;;;;;;;;;;;;;;;;;5110165;27;20303;-60
2021/06/30 08:08:43;;;;;;;;;;;;;;;;;;5117028;27;19957;-60
2021/06/30 08:11:09;;;;;;;;;;;;;;;;;;5114222;27;19923;-61
2021/06/30 08:13:35;;;;;;;;;;;;;;;;;;5097946;28;20014;-61
2021/06/30 08:16:01;;;;;;;;;;;;;;;;;;5114576;27;19915;-60
2021/06/30 08:18:27;;;;;;;;;;;;;;;;;;5110815;27;20420;-61
2021/06/30 08:20:53;;;;;;;;;;;;;;;;;;5114904;27;19915;-61
2021/06/30 08:23:19;;;;;;;;;;;;;;;;;;5115260;27;19918;-60
2021/06/30 08:25:45;;;;;;;;;;;;;;;;;;5114136;27;20270;-60
2021/06/30 08:28:11;;;;;;;;;;;;;;;;;;5109742;27;19934;-60
2021/06/30 08:30:37;;;;;;;;;;;;;;;;;;5113216;27;20442;-61
2021/06/30 08:33:03;;;;;;;;;;;;;;;;;;5112388;27;19943;-61
2021/06/30 08:35:29;;;;;;;;;;;;;;;;;;5115431;27;19977;-61
2021/06/30 08:37:55;;;;;;;;;;;;;;;;;;5113568;27;19927;-61
2021/06/30 08:40:21;;;;;;;;;;;;;;;;;;5113602;27;20357;-60
2021/06/30 08:42:47;;;;;;;;;;;;;;;;;;5114058;27;19923;-60
2021/06/30 08:45:13;;;;;;;;;;;;;;;;;;5093369;28;20444;-59
2021/06/30 08:47:39;;;;;;;;;;;;;;;;;;5116510;27;19908;-60
2021/06/30 08:50:05;;;;;;;;;;;;;;;;;;5113371;27;20342;-59
2021/06/30 08:52:31;;;;;;;;;;;;;;;;;;5112670;27;19912;-59
2021/06/30 08:54:57;;;;;;;;;;;;;;;;;;5095627;27;19911;-60
2021/06/30 08:57:23;;;;;;;;;;;;;;;;;;5108975;27;20383;-60
2021/06/30 08:59:49;;;;;;;;;;;;;;;;;;5111775;28;19916;-60
2021/06/30 09:02:15;;;;;;;;;;;;;;;;;;5114509;27;20274;-60
2021/06/30 09:04:43;;;;;;;;;;;;;;;;;;5113692;27;19978;-60
2021/06/30 09:07:08;;;;;;;;;;;;;;;;;;5112799;27;19927;-60
2021/06/30 09:09:34;;;;;;;;;;;;;;;;;;5111415;27;19924;-60
2021/06/30 09:12:00;;;;;;;;;;;;;;;;;;5112807;28;19908;-60
2021/06/30 09:14:26;;;;;;;;;;;;;;;;;;5125877;27;19908;-60
2021/06/30 09:16:55;;;;;;;;;;;;;;;;;;5115790;27;19966;-60
2021/06/30 09:19:21;;;;;;;;;;;;;;;;;;5095050;28;20282;-61
2021/06/30 09:21:47;;;;;;;;;;;;;;;;;;5112650;27;19931;-60
2021/06/30 09:24:19;;;;;;;;;;;;;;;;;;5109367;28;20002;-60
2021/06/30 09:26:45;;;;;;;;;;;;;;;;;;5125160;27;19908;-60
2021/06/30 09:29:10;;;;;;;;;;;;;;;;;;5110730;28;20027;-60
2021/06/30 09:31:37;;;;;;;;;;;;;;;;;;5112923;28;19921;-60
2021/06/30 09:34:03;;;;;;;;;;;;;;;;;;5113733;28;19911;-59
2021/06/30 09:36:31;;;;;;;;;;;;;;;;;;5110041;28;19918;-60
2021/06/30 09:38:57;;;;;;;;;;;;;;;;;;5112605;28;19994;-60
2021/06/30 09:41:22;;;;;;;;;;;;;;;;;;5114217;28;20049;-60
2021/06/30 09:43:48;;;;;;;;;;;;;;;;;;5112810;28;20259;-60
2021/06/30 09:46:14;;;;;;;;;;;;;;;;;;5112888;28;19919;-59
2021/06/30 09:48:40;;;;;;;;;;;;;;;;;;5111975;28;20421;-60
2021/06/30 09:51:06;;;;;;;;;;;;;;;;;;5110397;28;20022;-60
2021/06/30 09:53:32;;;;;;;;;;;;;;;;;;5115288;28;19947;-60
2021/06/30 09:55:58;;;;;;;;;;;;;;;;;;5112931;28;20282;-60
2021/06/30 09:58:24;;;;;;;;;;;;;;;;;;5108281;28;20365;-60
2021/06/30 10:00:50;;;;;;;;;;;;;;;;;;5112752;28;19918;-60
2021/06/30 10:03:16;;;;;;;;;;;;;;;;;;5110283;28;20407;-60
2021/06/30 10:05:41;;;;;;;;;;;;;;;;;;5119852;27;19946;-60
2021/06/30 10:08:07;;;;;;;;;;;;;;;;;;5116389;27;19945;-60
2021/06/30 10:10:33;;;;;;;;;;;;;;;;;;5116105;27;19923;-60
2021/06/30 10:12:59;;;;;;;;;;;;;;;;;;5119202;27;19962;-59
2021/06/30 10:15:25;;;;;;;;;;;;;;;;;;5111573;27;20286;-59
2021/06/30 10:17:51;;;;;;;;;;;;;;;;;;5116941;27;19915;-59
2021/06/30 10:20:18;;;;;;;;;;;;;;;;;;5116156;27;19916;-64
2021/06/30 10:22:44;;;;;;;;;;;;;;;;;;5117271;27;19919;-64
2021/06/30 10:25:10;;;;;;;;;;;;;;;;;;5126234;27;20406;-65
2021/06/30 10:27:38;;;;;;;;;;;;;;;;;;5121424;27;19911;-63
2021/06/30 10:30:04;;;;;;;;;;;;;;;;;;5124399;27;19908;-64
2021/06/30 10:32:30;;;;;;;;;;;;;;;;;;5128776;27;19915;-65
2021/06/30 10:34:56;;;;;;;;;;;;;;;;;;5125612;27;20378;-65
2021/06/30 10:37:22;;;;;;;;;;;;;;;;;;5125241;27;19915;-65
2021/06/30 10:39:48;;;;;;;;;;;;;;;;;;5105900;27;19911;-65
2021/06/30 10:42:14;;;;;;;;;;;;;;;;;;5120230;27;20042;-64
2021/06/30 10:44:40;;;;;;;;;;;;;;;;;;5125432;27;19911;-65
2021/06/30 10:47:06;;;;;;;;;;;;;;;;;;5123965;27;19998;-63
2021/06/30 10:49:32;;;;;;;;;;;;;;;;;;5122655;27;19918;-65
2021/06/30 10:51:58;;;;;;;;;;;;;;;;;;5124309;27;20374;-64
2021/06/30 10:54:23;;;;;;;;;;;;;;;;;;5122513;27;19915;-64
2021/06/30 10:56:49;;;;;;;;;;;;;;;;;;5124488;27;19942;-64
2021/06/30 10:59:15;;;;;;;;;;;;;;;;;;5122279;27;19908;-64
2021/06/30 11:01:41;;;;;;;;;;;;;;;;;;5122038;27;19943;-64
2021/06/30 11:04:07;;;;;;;;;;;;;;;;;;5124575;27;20041;-63
2021/06/30 11:06:35;;;;;;;;;;;;;;;;;;5121909;27;20371;-63
2021/06/30 11:09:02;;;;;;;;;;;;;;;;;;5117852;27;19908;-64
2021/06/30 11:11:33;;;;;;;;;;;;;;;;;;5120834;27;19961;-63
2021/06/30 11:13:59;;;;;;;;;;;;;;;;;;5115194;27;19923;-64
2021/06/30 11:16:26;;;;;;;;;;;;;;;;;;5113965;27;21556;-63
2021/06/30 11:18:52;;;;;;;;;;;;;;;;;;5113077;27;20003;-64
2021/06/30 11:21:18;;;;;;;;;;;;;;;;;;5109587;27;20147;-62
2021/06/30 11:23:44;;;;;;;;;;;;;;;;;;5117397;27;19912;-62
2021/06/30 11:26:10;;;;;;;;;;;;;;;;;;5115601;27;20357;-64
2021/06/30 11:28:37;;;;;;;;;;;;;;;;;;5109434;27;19969;-64
2021/06/30 11:31:02;;;;;;;;;;;;;;;;;;5114186;27;19911;-63
2021/06/30 11:33:28;;;;;;;;;;;;;;;;;;5110266;27;19912;-65
2021/06/30 11:35:54;;;;;;;;;;;;;;;;;;5114780;27;20513;-65
2021/06/30 11:38:20;;;;;;;;;;;;;;;;;;5113682;27;19908;-64
2021/06/30 11:40:52;;;;;;;;;;;;;;;;;;5120119;27;19920;-64
2021/06/30 11:43:21;;;;;;;;;;;;;;;;;;5122759;27;20435;-65
2021/06/30 11:45:47;;;;;;;;;;;;;;;;;;5123603;27;19922;-64
2021/06/30 11:48:13;;;;;;;;;;;;;;;;;;5120160;27;20564;-64
2021/06/30 11:50:39;;;;;;;;;;;;;;;;;;5125278;27;19951;-65
2021/06/30 11:53:05;;;;;;;;;;;;;;;;;;5121467;27;19911;-64
2021/06/30 11:55:30;;;;;;;;;;;;;;;;;;5121715;27;19956;-64
2021/06/30 11:57:57;;;;;;;;;;;;;;;;;;5120944;27;19911;-64
2021/06/30 12:00:23;;;;;;;;;;;;;;;;;;5120171;27;19919;-64
2021/06/30 12:02:49;;;;;;;;;;;;;;;;;;5123999;27;20357;-64
2021/06/30 12:05:15;;;;;;;;;;;;;;;;;;5127110;27;19908;-64
2021/06/30 12:07:41;;;;;;;;;;;;;;;;;;5118104;27;19953;-64
2021/06/30 12:10:07;;;;;;;;;;;;;;;;;;5102427;27;20290;-65
2021/06/30 12:12:33;;;;;;;;;;;;;;;;;;5114594;27;19919;-64
2021/06/30 12:14:59;;;;;;;;;;;;;;;;;;5113039;27;19908;-64
2021/06/30 12:17:25;;;;;;;;;;;;;;;;;;5115082;27;19954;-64
2021/06/30 12:19:51;;;;;;;;;;;;;;;;;;5113981;27;20377;-64
2021/06/30 12:22:17;;;;;;;;;;;;;;;;;;5102529;27;19969;-63
2021/06/30 12:24:43;;;;;;;;;;;;;;;;;;5111265;28;19916;-66
2021/06/30 12:27:08;;;;;;;;;;;;;;;;;;5126711;27;20008;-64
2021/06/30 12:29:35;;;;;;;;;;;;;;;;;;5111889;27;20274;-63
2021/06/30 12:32:00;;;;;;;;;;;;;;;;;;5111390;27;19959;-64
2021/06/30 12:34:26;;;;;;;;;;;;;;;;;;5113303;27;20416;-64
2021/06/30 12:36:52;;;;;;;;;;;;;;;;;;5113855;27;20362;-63
2021/06/30 12:39:18;;;;;;;;;;;;;;;;;;5108932;28;20006;-65
2021/06/30 12:41:44;;;;;;;;;;;;;;;;;;5110186;27;20378;-65
2021/06/30 12:44:10;;;;;;;;;;;;;;;;;;5108420;27;19916;-65
2021/06/30 12:46:36;;;;;;;;;;;;;;;;;;5112890;27;20381;-65
2021/06/30 12:49:02;;;;;;;;;;;;;;;;;;5113185;27;20002;-65
2021/06/30 12:51:28;;;;;;;;;;;;;;;;;;5110835;28;19916;-66
2021/06/30 12:53:53;;;;;;;;;;;;;;;;;;5102623;27;19911;-65
2021/06/30 12:56:24;;;;;;;;;;;;;;;;;;5113675;27;19999;-66
2021/06/30 12:58:52;;;;;;;;;;;;;;;;;;5108844;28;20282;-65
2021/06/30 13:01:18;;;;;;;;;;;;;;;;;;5111027;27;19999;-64
2021/06/30 13:03:44;;;;;;;;;;;;;;;;;;5085232;27;19915;-65
2021/06/30 13:06:10;;;;;;;;;;;;;;;;;;5109358;27;19912;-63
2021/06/30 13:08:36;;;;;;;;;;;;;;;;;;5116024;27;19918;-64
2021/06/30 13:11:02;;;;;;;;;;;;;;;;;;5112542;27;19919;-65
2021/06/30 13:13:28;;;;;;;;;;;;;;;;;;5114938;27;19915;-65
2021/06/30 13:15:54;;;;;;;;;;;;;;;;;;5102082;27;19912;-65
2021/06/30 13:18:20;;;;;;;;;;;;;;;;;;5108107;28;19953;-65
2021/06/30 13:20:45;;;;;;;;;;;;;;;;;;5115597;27;19907;-65
2021/06/30 13:23:11;;;;;;;;;;;;;;;;;;5114600;27;19916;-66
2021/06/30 13:25:45;;;;;;;;;;;;;;;;;;5113314;28;20374;-66
2021/06/30 13:28:32;;;;;;;;;;;;;;;;;;5096849;28;19912;-65
2021/06/30 13:36:27;;;;;;;;;;;;;;;;;;5095375;27;19962;-66
2021/06/30 13:38:53;;;;;;;;;;;;;;;;;;5112129;28;19993;-66
2021/06/30 13:41:19;;;;;;;;;;;;;;;;;;5107623;28;19916;-66
2021/06/30 13:43:46;;;;;;;;;;;;;;;;;;5108103;28;19962;-66
2021/06/30 13:46:12;;;;;;;;;;;;;;;;;;5112620;28;19999;-66
2021/06/30 13:48:39;;;;;;;;;;;;;;;;;;5091754;28;20392;-66
2021/06/30 13:51:07;;;;;;;;;;;;;;;;;;5111492;28;19907;-67
2021/06/30 13:53:33;;;;;;;;;;;;;;;;;;5114826;28;19918;-66
2021/06/30 13:55:59;;;;;;;;;;;;;;;;;;5101100;28;19912;-68
2021/06/30 13:58:25;;;;;;;;;;;;;;;;;;5107272;28;19911;-68
2021/06/30 14:00:50;;;;;;;;;;;;;;;;;;5112472;28;20362;-70
2021/06/30 14:03:16;;;;;;;;;;;;;;;;;;5108235;28;20015;-67
2021/06/30 14:05:42;;;;;;;;;;;;;;;;;;5115993;28;20439;-69
2021/06/30 14:08:15;;;;;;;;;;;;;;;;;;5106365;28;20222;-68
2021/06/30 14:10:41;;;;;;;;;;;;;;;;;;5102295;28;19965;-69
2021/06/30 14:13:07;;;;;;;;;;;;;;;;;;5114328;28;19911;-69
2021/06/30 14:15:33;;;;;;;;;;;;;;;;;;5109501;28;19958;-68
2021/06/30 14:17:59;;;;;;;;;;;;;;;;;;5093658;28;19912;-68
2021/06/30 14:20:24;;;;;;;;;;;;;;;;;;5112976;28;19976;-68
2021/06/30 14:22:50;;;;;;;;;;;;;;;;;;5112668;28;19920;-68
2021/06/30 14:25:16;;;;;;;;;;;;;;;;;;5112745;28;20362;-68
2021/06/30 14:27:42;;;;;;;;;;;;;;;;;;5108069;28;19919;-68
2021/06/30 14:30:08;;;;;;;;;;;;;;;;;;5108409;28;20030;-68
2021/06/30 14:32:34;;;;;;;;;;;;;;;;;;5114421;28;19919;-68
2021/06/30 14:35:00;;;;;;;;;;;;;;;;;;5112661;28;19998;-68
2021/06/30 14:37:26;;;;;;;;;;;;;;;;;;5112001;28;19957;-69
2021/06/30 14:39:52;;;;;;;;;;;;;;;;;;5112123;28;19912;-68
2021/06/30 14:42:18;;;;;;;;;;;;;;;;;;5106811;28;19928;-68
2021/06/30 14:44:44;;;;;;;;;;;;;;;;;;5115843;28;20374;-68
2021/06/30 14:47:10;;;;;;;;;;;;;;;;;;5112534;28;19912;-68
2021/06/30 14:49:36;;;;;;;;;;;;;;;;;;5113331;28;20002;-68
2021/06/30 14:52:02;;;;;;;;;;;;;;;;;;5113677;27;20002;-69
2021/06/30 14:54:28;;;;;;;;;;;;;;;;;;5126597;27;20274;-69
2021/06/30 14:56:53;;;;;;;;;;;;;;;;;;5114759;27;19969;-68
2021/06/30 14:59:19;;;;;;;;;;;;;;;;;;5112489;28;20290;-70
2021/06/30 15:01:45;;;;;;;;;;;;;;;;;;5120740;27;19930;-68
2021/06/30 15:04:11;;;;;;;;;;;;;;;;;;5122131;27;19966;-69
2021/06/30 15:06:37;;;;;;;;;;;;;;;;;;5113034;27;19919;-68
2021/06/30 15:09:03;;;;;;;;;;;;;;;;;;5102242;27;20420;-70
2021/06/30 15:11:29;;;;;;;;;;;;;;;;;;5117261;27;19912;-70
2021/06/30 15:13:57;;;;;;;;;;;;;;;;;;5116571;27;19912;-70
2021/06/30 15:16:23;;;;;;;;;;;;;;;;;;5117371;27;20347;-69
2021/06/30 15:18:49;;;;;;;;;;;;;;;;;;5108203;27;19956;-68
2021/06/30 15:21:15;;;;;;;;;;;;;;;;;;5106139;28;19912;-68
2021/06/30 15:23:40;;;;;;;;;;;;;;;;;;5131283;27;19908;-69
2021/06/30 15:26:06;;;;;;;;;;;;;;;;;;5115725;27;19915;-69
2021/06/30 15:28:32;;;;;;;;;;;;;;;;;;5108922;28;20402;-69
2021/06/30 15:30:58;;;;;;;;;;;;;;;;;;5105841;27;19915;-70
2021/06/30 15:33:24;;;;;;;;;;;;;;;;;;5110859;27;19919;-70
2021/06/30 15:35:50;;;;;;;;;;;;;;;;;;5116237;27;19907;-70
2021/06/30 15:38:16;;;;;;;;;;;;;;;;;;5114625;27;19911;-68
2021/06/30 15:40:42;;;;;;;;;;;;;;;;;;5103372;27;20306;-70
2021/06/30 15:43:08;;;;;;;;;;;;;;;;;;5116783;27;19923;-70
2021/06/30 15:45:34;;;;;;;;;;;;;;;;;;5112277;27;20275;-70
2021/06/30 15:47:59;;;;;;;;;;;;;;;;;;5114399;27;19908;-70
2021/06/30 15:50:25;;;;;;;;;;;;;;;;;;5116032;27;19908;-68
2021/06/30 15:52:51;;;;;;;;;;;;;;;;;;5103574;27;19911;-67
2021/06/30 15:55:20;;;;;;;;;;;;;;;;;;5114030;27;19916;-69
2021/06/30 15:57:46;;;;;;;;;;;;;;;;;;5096263;27;20423;-67
2021/06/30 16:00:12;;;;;;;;;;;;;;;;;;5110777;28;19916;-69
2021/06/30 16:02:38;;;;;;;;;;;;;;;;;;5118083;27;19926;-68
2021/06/30 16:05:04;;;;;;;;;;;;;;;;;;5097600;28;20263;-69
2021/06/30 16:07:30;;;;;;;;;;;;;;;;;;5114540;27;19915;-69
2021/06/30 16:09:56;;;;;;;;;;;;;;;;;;5114019;27;20450;-69
2021/06/30 16:12:22;;;;;;;;;;;;;;;;;;5110730;27;19919;-67
2021/06/30 16:14:47;;;;;;;;;;;;;;;;;;5116372;27;19961;-69
2021/06/30 16:17:13;;;;;;;;;;;;;;;;;;5115057;27;19938;-69
2021/06/30 16:19:39;;;;;;;;;;;;;;;;;;5114940;27;20419;-69
2021/06/30 16:22:05;;;;;;;;;;;;;;;;;;5113099;27;19926;-68
2021/06/30 16:24:31;;;;;;;;;;;;;;;;;;5111528;27;20363;-69
2021/06/30 16:26:57;;;;;;;;;;;;;;;;;;5113517;27;20389;-68
2021/06/30 16:29:23;;;;;;;;;;;;;;;;;;5113634;27;19933;-69
2021/06/30 16:31:49;;;;;;;;;;;;;;;;;;5112371;27;19988;-69
2021/06/30 16:34:15;;;;;;;;;;;;;;;;;;5094674;28;20375;-68
2021/06/30 16:36:40;;;;;;;;;;;;;;;;;;5111559;27;19957;-69
2021/06/30 16:39:06;;;;;;;;;;;;;;;;;;5111947;27;19926;-67
2021/06/30 16:41:32;;;;;;;;;;;;;;;;;;5116106;27;19912;-72
2021/06/30 16:43:58;;;;;;;;;;;;;;;;;;5112805;27;19916;-71